Glostrup, Denmark
Current Conditions -  °F | °C
As of 11:20 PM on Sunday 25 Jan 2015 (Local Time) from EKCH Reporting Station
Moderate Fog Moderate Fog  
Wind Chill: 30°   Ceiling: 100
Heat Index: 34°   Visibility: 0.09mi
Dew Point: 34°   Wind: 5mph
Humidity: 100%   Direction: 220°SW
Pressure: 30.21"   Gusts: NA
Location:  55.67°N, 12.4°E
Report Text: EKCH 252220Z 22004KT 180V240 0150 R22L/0350N R04L/0650NR12/0300N FG VV001 01/01 Q1023 R04L/720152 R04R/720157 R12/710166NOSIG
Loading
Personal Weather Stations






























Interactive Weather Map New forecast layout! Learn more

10-Day Weather Forecast

Advertisements
Track Severe Weather on mobile